createdAt,value
2023-09-17T00:01:00.533Z,81.84
2023-09-17T00:04:02.314Z,82.02
2023-09-17T00:07:04.127Z,82.84
2023-09-17T00:10:06.601Z,81.92
2023-09-17T00:13:08.448Z,82.21
2023-09-17T00:16:11.886Z,82.13
2023-09-17T00:19:14.356Z,82.89
2023-09-17T00:22:16.292Z,83.08
2023-09-17T00:25:18.078Z,82.25
2023-09-17T00:28:19.891Z,81.94
2023-09-17T00:31:23.206Z,82.02
2023-09-17T00:34:24.941Z,82.47
2023-09-17T00:37:26.750Z,82.89
2023-09-17T00:40:29.944Z,82.65
2023-09-17T00:43:31.719Z,82.26
2023-09-17T00:46:34.985Z,82.47
2023-09-17T00:49:37.227Z,82.38
2023-09-17T00:52:39.479Z,83.19
2023-09-17T00:55:41.655Z,82.90
2023-09-17T00:58:45.260Z,83.11
2023-09-17T01:01:48.492Z,83.32
2023-09-17T01:04:53.291Z,83.89
2023-09-17T01:07:55.388Z,84.07
2023-09-17T01:10:58.934Z,84.60
2023-09-17T01:14:00.961Z,83.91
2023-09-17T01:17:04.802Z,83.77
2023-09-17T01:20:08.267Z,84.10
2023-09-17T01:23:16.899Z,83.99
2023-09-17T01:26:25.245Z,84.13
2023-09-17T01:29:32.093Z,83.75
2023-09-17T01:32:33.775Z,83.54
2023-09-17T01:35:35.475Z,83.23
2023-09-17T01:38:42.221Z,82.79
2023-09-17T01:41:45.665Z,82.67
2023-09-17T01:44:48.856Z,82.54
2023-09-17T01:47:51.914Z,83.09
2023-09-17T01:50:54.076Z,83.04
2023-09-17T01:53:56.103Z,82.94
2023-09-17T01:56:57.790Z,83.69
2023-09-17T02:00:01.235Z,84.03
2023-09-17T02:03:03.177Z,83.40
2023-09-17T02:06:04.929Z,83.02
2023-09-17T02:09:06.637Z,82.87
2023-09-17T02:12:08.320Z,82.77
2023-09-17T02:15:11.572Z,82.33
2023-09-17T02:18:13.296Z,82.53
2023-09-17T02:21:14.955Z,82.69
2023-09-17T02:24:16.630Z,82.89
2023-09-17T02:27:18.287Z,81.19
2023-09-17T02:30:21.549Z,81.36
2023-09-17T02:33:23.256Z,81.00
2023-09-17T02:36:24.999Z,81.46
2023-09-17T02:39:26.697Z,82.72
2023-09-17T02:42:28.378Z,81.32
2023-09-17T02:45:31.386Z,82.89
2023-09-17T02:48:33.467Z,83.24
2023-09-17T02:51:35.242Z,83.67
2023-09-17T02:54:36.959Z,83.66
2023-09-17T02:57:38.705Z,83.41
2023-09-17T03:00:42.040Z,82.55
2023-09-17T03:03:43.538Z,82.66
2023-09-17T03:06:45.230Z,82.53
2023-09-17T03:09:46.961Z,82.46
2023-09-17T03:12:48.680Z,82.48
2023-09-17T03:15:56.524Z,82.07
2023-09-17T03:18:58.301Z,82.26
2023-09-17T03:22:00.508Z,82.46
2023-09-17T03:25:04.441Z,82.28
2023-09-17T03:28:06.941Z,82.87
2023-09-17T03:31:10.047Z,82.55
2023-09-17T03:34:11.911Z,82.58
2023-09-17T03:37:13.598Z,82.71
2023-09-17T03:40:16.019Z,82.85
2023-09-17T03:43:17.876Z,83.09
2023-09-17T03:46:21.065Z,82.79
2023-09-17T03:49:22.900Z,82.95
2023-09-17T03:52:24.901Z,82.99
2023-09-17T03:55:26.934Z,83.46
2023-09-17T03:58:28.759Z,83.45
2023-09-17T04:01:32.660Z,83.77
2023-09-17T04:04:34.384Z,83.35
2023-09-17T04:07:36.236Z,83.08
2023-09-17T04:10:37.961Z,82.80
2023-09-17T04:13:39.766Z,83.29
2023-09-17T04:16:42.942Z,83.05
2023-09-17T04:19:44.829Z,83.15
2023-09-17T04:22:47.514Z,83.36
2023-09-17T04:25:49.280Z,83.33
2023-09-17T04:28:51.076Z,83.75
2023-09-17T04:31:54.220Z,83.79
2023-09-17T04:34:56.121Z,83.65
2023-09-17T04:37:57.939Z,83.31
2023-09-17T04:41:00.432Z,83.68
2023-09-17T04:44:02.257Z,83.07
2023-09-17T04:47:05.763Z,83.70
2023-09-17T04:50:09.470Z,83.15
2023-09-17T04:53:11.216Z,82.97
2023-09-17T04:56:12.957Z,83.01
2023-09-17T04:59:14.675Z,82.91
2023-09-17T05:02:17.876Z,82.72
2023-09-17T05:05:21.563Z,82.70
2023-09-17T05:08:25.391Z,82.86
2023-09-17T05:11:29.160Z,83.24
2023-09-17T05:14:30.875Z,83.04
2023-09-17T05:17:33.978Z,82.60
2023-09-17T05:20:35.683Z,82.69
2023-09-17T05:23:37.966Z,82.61
2023-09-17T05:26:39.733Z,82.44
2023-09-17T05:29:41.633Z,81.72
2023-09-17T05:32:44.822Z,81.85
2023-09-17T05:35:46.575Z,81.90
2023-09-17T05:38:48.724Z,81.44
2023-09-17T05:41:50.443Z,81.52
2023-09-17T05:44:52.139Z,80.64
2023-09-17T05:47:55.263Z,79.69
2023-09-17T05:50:59.811Z,79.36
2023-09-17T05:54:01.899Z,78.93
2023-09-17T05:57:03.665Z,79.32
2023-09-17T06:00:08.135Z,79.12
2023-09-17T06:03:11.367Z,78.30
2023-09-17T06:06:12.922Z,78.92
2023-09-17T06:09:14.605Z,78.52
2023-09-17T06:12:16.286Z,78.74
2023-09-17T06:15:18.138Z,79.17
2023-09-17T06:18:21.179Z,78.04
2023-09-17T06:21:22.904Z,78.13
2023-09-17T06:24:24.616Z,77.41
2023-09-17T06:27:26.314Z,77.66
2023-09-17T06:30:27.945Z,76.82
2023-09-17T06:33:31.540Z,76.13
2023-09-17T06:36:33.288Z,76.78
2023-09-17T06:39:35.850Z,77.21
2023-09-17T06:42:37.659Z,76.89
2023-09-17T06:45:39.430Z,77.49
2023-09-17T06:48:42.443Z,76.31
2023-09-17T06:51:44.079Z,75.65
2023-09-17T06:54:45.780Z,75.39
2023-09-17T06:57:47.446Z,74.81
2023-09-17T07:00:49.172Z,74.45
2023-09-17T07:03:52.420Z,73.41
2023-09-17T07:06:54.377Z,73.76
2023-09-17T07:09:56.493Z,73.82
2023-09-17T07:12:58.140Z,72.30
2023-09-17T07:15:59.797Z,72.79
2023-09-17T07:19:03.081Z,72.45
2023-09-17T07:22:04.708Z,72.07
2023-09-17T07:25:06.701Z,72.35
2023-09-17T07:28:08.691Z,71.65
2023-09-17T07:31:10.555Z,71.03
2023-09-17T07:34:13.693Z,72.24
2023-09-17T07:37:15.405Z,71.21
2023-09-17T07:40:17.209Z,70.48
2023-09-17T07:43:18.896Z,70.03
2023-09-17T07:46:20.640Z,69.33
2023-09-17T07:49:23.777Z,69.21
2023-09-17T07:52:25.492Z,68.46
2023-09-17T07:55:27.361Z,69.26
2023-09-17T07:58:29.084Z,67.98
2023-09-17T08:01:30.862Z,67.51
2023-09-17T08:04:34.035Z,68.55
2023-09-17T08:07:36.058Z,67.68
2023-09-17T08:10:38.101Z,67.29
2023-09-17T08:13:39.800Z,66.00
2023-09-17T08:16:41.803Z,66.32
2023-09-17T08:19:44.964Z,64.38
2023-09-17T08:22:46.567Z,63.71
2023-09-17T08:25:48.337Z,62.43
2023-09-17T08:28:50.198Z,62.11
2023-09-17T08:31:51.875Z,61.42
2023-09-17T08:34:55.084Z,61.71
2023-09-17T08:37:56.639Z,61.32
2023-09-17T08:40:59.531Z,60.75
2023-09-17T08:44:02.427Z,61.70
2023-09-17T08:47:04.666Z,59.62
2023-09-17T08:50:09.073Z,60.16
2023-09-17T08:53:13.779Z,61.02
2023-09-17T08:56:18.011Z,59.98
2023-09-17T08:59:26.431Z,59.58
2023-09-17T09:02:33.073Z,59.12
2023-09-17T09:05:37.065Z,58.42
2023-09-17T09:08:39.726Z,59.00
2023-09-17T09:11:41.575Z,59.16
2023-09-17T09:14:44.343Z,59.21
2023-09-17T09:17:46.139Z,57.07
2023-09-17T09:20:49.143Z,57.37
2023-09-17T09:23:51.113Z,57.24
2023-09-17T09:26:53.188Z,56.31
2023-09-17T09:29:54.901Z,56.95
2023-09-17T09:32:57.690Z,57.66
2023-09-17T09:36:01.157Z,56.64
2023-09-17T09:39:03.351Z,56.40
2023-09-17T09:42:06.372Z,56.93
2023-09-17T09:45:13.492Z,57.24
2023-09-17T09:48:15.184Z,55.41
2023-09-17T09:51:19.399Z,55.86
2023-09-17T09:54:21.074Z,56.63
2023-09-17T09:57:23.692Z,56.23
2023-09-17T10:00:25.884Z,54.78
2023-09-17T10:03:27.672Z,55.59
2023-09-17T10:06:30.829Z,56.60
2023-09-17T10:09:32.577Z,55.06
2023-09-17T10:12:34.811Z,56.31
2023-09-17T10:15:37.703Z,57.03
2023-09-17T10:18:40.800Z,58.00
2023-09-17T10:21:43.892Z,56.70
2023-09-17T10:24:46.145Z,54.81
2023-09-17T10:27:49.759Z,54.16
2023-09-17T10:30:52.308Z,55.59
2023-09-17T10:33:54.564Z,55.95
2023-09-17T10:36:59.104Z,55.93
2023-09-17T10:40:02.202Z,56.50
2023-09-17T10:43:06.299Z,55.69
2023-09-17T10:46:08.112Z,55.56
2023-09-17T10:49:11.130Z,54.46
2023-09-17T10:52:15.512Z,54.02
2023-09-17T10:55:17.822Z,52.84
2023-09-17T10:58:25.903Z,51.22
2023-09-17T11:01:30.660Z,51.76
2023-09-17T11:04:33.129Z,51.63
2023-09-17T11:07:36.821Z,52.45
2023-09-17T11:10:38.802Z,52.61
2023-09-17T11:13:40.612Z,52.77
2023-09-17T11:16:42.516Z,52.33
2023-09-17T11:19:44.420Z,52.62
2023-09-17T11:22:52.245Z,53.33
2023-09-17T11:25:56.102Z,52.31
2023-09-17T11:28:58.644Z,53.81
2023-09-17T11:32:01.969Z,53.90
2023-09-17T11:35:04.824Z,53.09
2023-09-17T11:38:08.252Z,51.80
2023-09-17T11:41:18.881Z,51.76
2023-09-17T11:44:21.763Z,51.82
2023-09-17T11:47:24.335Z,52.25
2023-09-17T11:50:27.304Z,51.96
2023-09-17T12:30:50.900Z,49.73
2023-09-17T12:33:53.339Z,49.97
2023-09-17T12:36:55.772Z,49.66
2023-09-17T12:39:57.929Z,48.95
2023-09-17T12:42:59.940Z,47.66
2023-09-17T12:46:03.179Z,46.67
2023-09-17T12:49:07.020Z,46.56
2023-09-17T12:52:09.059Z,48.73
2023-09-17T12:55:11.500Z,47.69
2023-09-17T12:58:13.935Z,48.69
2023-09-17T13:01:18.051Z,48.85
2023-09-17T13:04:20.092Z,49.19
2023-09-17T13:07:23.633Z,47.81
2023-09-17T13:10:27.477Z,47.73
2023-09-17T13:13:29.712Z,47.71
2023-09-17T13:16:33.200Z,48.59
2023-09-17T13:19:36.817Z,48.73
2023-09-17T13:22:41.727Z,48.43
2023-09-17T13:25:44.586Z,47.88
2023-09-17T13:28:52.371Z,47.71
2023-09-17T13:31:56.722Z,48.58
2023-09-17T13:34:59.809Z,46.87
2023-09-17T13:38:02.716Z,46.90
2023-09-17T13:41:05.256Z,45.68
2023-09-17T13:44:08.137Z,46.50
2023-09-17T13:47:13.111Z,48.02
2023-09-17T13:50:15.985Z,45.99
2023-09-17T13:53:19.133Z,47.13
2023-09-17T13:56:21.478Z,46.63
2023-09-17T13:59:24.217Z,47.00
2023-09-17T14:02:28.253Z,46.87
2023-09-17T14:05:30.838Z,46.55
2023-09-17T14:08:33.441Z,45.92
2023-09-17T14:11:36.347Z,45.93
2023-09-17T14:14:37.922Z,45.52
2023-09-17T14:17:41.743Z,46.57
2023-09-17T14:20:43.889Z,46.39
2023-09-17T14:23:45.864Z,46.58
2023-09-17T14:26:48.751Z,46.73
2023-09-17T14:29:51.114Z,46.89
2023-09-17T14:32:56.024Z,46.19
2023-09-17T14:35:58.351Z,46.68
2023-09-17T14:39:01.147Z,47.23
2023-09-17T14:42:04.687Z,47.25
2023-09-17T14:45:08.146Z,46.86
2023-09-17T14:48:12.751Z,46.44
2023-09-17T14:51:14.996Z,46.05
2023-09-17T14:54:17.164Z,45.60
2023-09-17T14:57:20.033Z,46.43
2023-09-17T15:00:23.286Z,46.72
2023-09-17T15:03:27.735Z,46.72
2023-09-17T15:06:29.635Z,46.76
2023-09-17T15:09:32.477Z,47.28
2023-09-17T15:12:35.239Z,47.42
2023-09-17T15:15:39.336Z,47.70
2023-09-17T15:18:43.334Z,47.69
2023-09-17T15:21:45.807Z,47.66
2023-09-17T15:24:48.015Z,47.54
2023-09-17T15:27:50.796Z,47.37
2023-09-17T15:30:53.317Z,47.40
2023-09-17T15:33:57.856Z,47.32
2023-09-17T15:37:00.648Z,47.08
2023-09-17T15:40:02.924Z,47.08
2023-09-17T15:43:05.351Z,47.93
2023-09-17T15:46:08.660Z,48.14
2023-09-17T15:49:13.240Z,48.57
2023-09-17T15:52:15.739Z,48.77
2023-09-17T15:55:19.381Z,48.95
2023-09-17T15:58:21.670Z,48.36
2023-09-17T16:01:24.205Z,48.77
2023-09-17T16:04:28.804Z,49.52
2023-09-17T16:07:31.144Z,49.82
2023-09-17T16:10:33.228Z,48.41
2023-09-17T16:13:35.617Z,48.56
2023-09-17T16:16:37.946Z,49.45
2023-09-17T16:19:53.650Z,49.91
2023-09-17T16:22:56.078Z,50.40
2023-09-17T16:25:57.833Z,50.80
2023-09-17T16:29:00.186Z,52.34
2023-09-17T16:32:02.105Z,52.61
2023-09-17T16:35:07.402Z,52.68
2023-09-17T16:38:09.248Z,52.86
2023-09-17T16:41:12.656Z,52.93
2023-09-17T16:44:15.092Z,53.33
2023-09-17T16:47:17.820Z,54.15
2023-09-17T16:50:22.309Z,55.06
2023-09-17T16:53:24.962Z,54.20
2023-09-17T16:56:27.113Z,54.50
2023-09-17T16:59:29.213Z,54.37
2023-09-17T17:02:32.466Z,54.82
2023-09-17T17:11:57.309Z,56.08
2023-09-17T17:15:01.927Z,56.23
2023-09-17T17:18:04.210Z,56.44
2023-09-17T17:21:06.625Z,56.72
2023-09-17T17:24:09.214Z,56.70
2023-09-17T17:27:13.154Z,56.61
2023-09-17T17:30:16.732Z,57.14
2023-09-17T17:33:19.760Z,57.98
2023-09-17T17:36:23.205Z,57.84
2023-09-17T17:39:27.333Z,59.69
2023-09-17T17:42:32.330Z,59.78
2023-09-17T17:45:36.912Z,58.91
2023-09-17T17:48:43.756Z,58.97
2023-09-17T17:51:47.404Z,59.54
2023-09-17T17:55:03.774Z,60.02
2023-09-17T17:58:10.740Z,59.92
2023-09-17T18:01:15.408Z,60.96
2023-09-17T18:04:41.278Z,61.93
2023-09-17T18:07:48.369Z,61.91
2023-09-17T18:10:54.749Z,62.14
2023-09-17T18:14:04.217Z,62.67
2023-09-17T18:21:26.365Z,61.72
2023-09-17T18:24:40.406Z,62.97
2023-09-17T18:28:06.439Z,63.60
2023-09-17T18:31:25.000Z,63.89
2023-09-17T18:34:46.973Z,63.83
2023-09-17T18:37:49.869Z,64.07
2023-09-17T18:40:54.164Z,64.13
2023-09-17T18:43:58.898Z,64.11
2023-09-17T18:47:06.354Z,64.57
2023-09-17T18:50:11.060Z,64.40
2023-09-17T18:53:15.488Z,64.68
2023-09-17T18:56:19.113Z,64.56
2023-09-17T18:59:22.527Z,64.95
2023-09-17T19:02:28.018Z,65.10
2023-09-17T19:05:34.766Z,65.31
2023-09-17T19:08:38.671Z,65.17
2023-09-17T19:11:41.446Z,65.47
2023-09-17T19:14:44.930Z,66.43
2023-09-17T19:17:50.065Z,65.91
2023-09-17T19:21:06.898Z,65.85
2023-09-17T19:24:09.791Z,65.25
2023-09-17T19:27:12.482Z,65.23
2023-09-17T19:30:15.888Z,65.37
2023-09-17T19:33:22.413Z,65.38
2023-09-17T19:36:25.478Z,65.92
2023-09-17T19:39:28.718Z,65.97
2023-09-17T19:42:31.246Z,66.25
2023-09-17T19:45:33.816Z,66.61
2023-09-17T19:48:45.921Z,66.43
2023-09-17T19:51:50.428Z,66.33
2023-09-17T19:54:53.819Z,66.31
2023-09-17T19:57:57.095Z,66.87
2023-09-17T20:01:00.015Z,66.12
2023-09-17T20:04:05.705Z,66.88
2023-09-17T20:07:11.594Z,67.08
2023-09-17T20:10:17.387Z,67.24
2023-09-17T20:13:19.738Z,67.44
2023-09-17T20:16:22.083Z,67.86
2023-09-17T20:19:25.774Z,68.47
2023-09-17T20:22:29.859Z,68.04
2023-09-17T20:25:32.133Z,69.04
2023-09-17T20:28:35.163Z,68.65
2023-09-17T20:31:37.050Z,68.80
2023-09-17T20:34:41.016Z,69.05
2023-09-17T20:37:43.810Z,68.50
2023-09-17T20:40:46.623Z,68.67
2023-09-17T20:43:48.366Z,69.45
2023-09-17T20:46:50.235Z,69.25
2023-09-17T20:49:54.129Z,69.51
2023-09-17T20:52:55.972Z,69.60
2023-09-17T20:55:57.670Z,69.78
2023-09-17T20:58:59.922Z,69.24
2023-09-17T21:02:01.812Z,68.91
2023-09-17T21:05:05.625Z,69.75
2023-09-17T21:08:07.342Z,69.87
2023-09-17T21:11:09.142Z,69.78
2023-09-17T21:14:10.965Z,69.73
2023-09-17T21:17:12.760Z,69.57
2023-09-17T21:20:16.268Z,69.67
2023-09-17T21:23:18.002Z,69.83
2023-09-17T21:26:19.809Z,70.09
2023-09-17T21:29:21.740Z,70.52
2023-09-17T21:32:23.744Z,70.70
2023-09-17T21:35:26.880Z,70.72
2023-09-17T21:38:28.708Z,70.40
2023-09-17T21:41:30.546Z,70.57
2023-09-17T21:44:32.257Z,70.84
2023-09-17T21:47:34.013Z,70.74
2023-09-17T21:50:37.145Z,71.03
2023-09-17T21:53:38.841Z,71.47
2023-09-17T21:56:40.557Z,71.28
2023-09-17T21:59:42.296Z,70.66
2023-09-17T22:02:44.099Z,70.83
2023-09-17T22:05:47.617Z,71.83
2023-09-17T22:08:49.369Z,71.54
2023-09-17T22:11:52.015Z,71.18
2023-09-17T22:14:53.680Z,71.51
2023-09-17T22:17:55.360Z,70.88
2023-09-17T22:21:06.634Z,71.19
2023-09-17T22:24:08.671Z,71.63
2023-09-17T22:27:10.382Z,71.01
2023-09-17T22:30:12.992Z,71.28
2023-09-17T22:33:14.708Z,71.77
2023-09-17T22:36:17.916Z,71.91
2023-09-17T22:39:19.670Z,72.00
2023-09-17T22:42:21.438Z,72.53
2023-09-17T22:45:24.470Z,72.43
2023-09-17T22:48:26.128Z,72.77
2023-09-17T22:51:29.212Z,72.55
2023-09-17T22:54:30.993Z,72.76
2023-09-17T22:57:32.739Z,73.51
2023-09-17T23:00:34.508Z,72.86
2023-09-17T23:03:36.229Z,73.38
2023-09-17T23:06:39.373Z,73.59
2023-09-17T23:09:41.060Z,72.47
2023-09-17T23:12:42.713Z,72.87
2023-09-17T23:15:44.414Z,72.41
2023-09-17T23:18:46.174Z,72.97
2023-09-17T23:21:49.317Z,73.58
2023-09-17T23:24:51.069Z,73.38
2023-09-17T23:27:52.907Z,73.73
2023-09-17T23:30:54.617Z,73.00
2023-09-17T23:33:56.323Z,74.23
2023-09-17T23:36:59.400Z,73.55
2023-09-17T23:40:01.185Z,73.89
2023-09-17T23:43:03.076Z,73.70
2023-09-17T23:46:04.832Z,73.34
2023-09-17T23:49:06.561Z,73.53
2023-09-17T23:52:09.741Z,73.18
2023-09-17T23:55:11.833Z,73.65
2023-09-17T23:58:13.546Z,74.05
